createdAt,value
2022-10-08T00:00:22.282Z,20.06
2022-10-08T00:01:22.274Z,20.08
2022-10-08T00:02:22.260Z,20.10
2022-10-08T00:03:22.251Z,20.08
2022-10-08T00:04:22.332Z,20.08
2022-10-08T00:05:22.252Z,20.08
2022-10-08T00:06:22.218Z,20.08
2022-10-08T00:07:22.232Z,20.10
2022-10-08T00:08:22.197Z,20.08
2022-10-08T00:09:22.188Z,20.08
2022-10-08T00:10:22.177Z,20.08
2022-10-08T00:11:22.167Z,20.08
2022-10-08T00:12:22.176Z,20.08
2022-10-08T00:13:22.192Z,20.08
2022-10-08T00:14:22.136Z,20.08
2022-10-08T00:15:22.128Z,20.06
2022-10-08T00:16:22.124Z,20.06
2022-10-08T00:17:22.123Z,20.08
2022-10-08T00:18:22.127Z,20.06
2022-10-08T00:19:22.083Z,20.08
2022-10-08T00:20:22.070Z,20.06
2022-10-08T00:21:22.063Z,20.08
2022-10-08T00:22:22.049Z,20.06
2022-10-08T00:23:22.038Z,20.08
2022-10-08T00:24:22.048Z,20.08
2022-10-08T00:25:22.017Z,20.06
2022-10-08T00:26:22.006Z,20.06
2022-10-08T00:27:21.998Z,20.08
2022-10-08T00:28:22.092Z,20.08
2022-10-08T00:29:22.027Z,20.08
2022-10-08T00:30:21.965Z,20.08
2022-10-08T00:31:22.025Z,20.08
2022-10-08T00:32:21.942Z,20.08
2022-10-08T00:33:21.934Z,20.08
2022-10-08T00:34:21.941Z,20.06
2022-10-08T00:35:21.909Z,20.06
2022-10-08T00:36:21.898Z,20.08
2022-10-08T00:37:21.887Z,20.06
2022-10-08T00:38:21.876Z,20.08
2022-10-08T00:39:21.893Z,20.08
2022-10-08T00:40:21.875Z,20.06
2022-10-08T00:41:21.845Z,20.06
2022-10-08T00:42:21.833Z,20.08
2022-10-08T00:43:25.934Z,20.08
2022-10-08T00:44:21.835Z,20.08
2022-10-08T00:45:21.966Z,20.08
2022-10-08T00:46:21.791Z,20.08
2022-10-08T00:47:21.782Z,20.08
2022-10-08T00:48:21.769Z,20.06
2022-10-08T00:49:21.783Z,20.06
2022-10-08T00:50:21.771Z,20.06
2022-10-08T00:51:21.740Z,20.08
2022-10-08T00:52:21.749Z,20.05
2022-10-08T00:53:21.717Z,20.08
2022-10-08T00:54:21.706Z,20.06
2022-10-08T00:55:21.699Z,20.06
2022-10-08T00:56:21.685Z,20.06
2022-10-08T00:57:21.715Z,20.06
2022-10-08T00:58:21.663Z,20.06
2022-10-08T00:59:21.653Z,20.06
2022-10-08T01:00:21.640Z,20.06
2022-10-08T01:01:21.755Z,20.06
2022-10-08T01:02:21.628Z,20.08
2022-10-08T01:03:21.636Z,20.06
2022-10-08T01:04:21.599Z,20.06
2022-10-08T01:05:21.591Z,20.06
2022-10-08T01:06:21.578Z,20.06
2022-10-08T01:07:21.569Z,20.05
2022-10-08T01:08:21.579Z,20.06
2022-10-08T01:09:21.550Z,20.06
2022-10-08T01:10:21.535Z,20.06
2022-10-08T01:11:21.532Z,20.06
2022-10-08T01:12:21.539Z,20.06
2022-10-08T01:13:21.507Z,20.06
2022-10-08T01:14:21.518Z,20.06
2022-10-08T01:15:21.508Z,20.06
2022-10-08T01:16:21.523Z,20.06
2022-10-08T01:17:21.486Z,20.05
2022-10-08T01:18:21.450Z,20.06
2022-10-08T01:19:21.462Z,20.05
2022-10-08T01:20:21.450Z,20.06
2022-10-08T01:21:21.421Z,20.06
2022-10-08T01:22:21.406Z,20.06
2022-10-08T01:23:21.404Z,20.06
2022-10-08T01:24:21.385Z,20.06
2022-10-08T01:25:21.410Z,20.06
2022-10-08T01:26:21.367Z,20.05
2022-10-08T01:27:21.360Z,20.05
2022-10-08T01:28:21.456Z,20.05
2022-10-08T01:29:21.337Z,20.06
2022-10-08T01:30:21.323Z,20.05
2022-10-08T01:31:21.405Z,20.06
2022-10-08T01:32:21.301Z,20.05
2022-10-08T01:33:21.313Z,20.05
2022-10-08T01:34:21.280Z,20.06
2022-10-08T01:35:21.274Z,20.05
2022-10-08T01:36:21.279Z,20.06
2022-10-08T01:37:21.268Z,20.05
2022-10-08T01:38:21.237Z,20.06
2022-10-08T01:39:21.234Z,20.06
2022-10-08T01:40:21.215Z,20.05
2022-10-08T01:41:21.208Z,20.05
2022-10-08T01:42:21.222Z,20.05
2022-10-08T01:43:21.205Z,20.06
2022-10-08T01:44:21.173Z,20.05
2022-10-08T01:45:21.175Z,20.06
2022-10-08T01:46:21.153Z,20.05
2022-10-08T01:47:21.167Z,20.05
2022-10-08T01:48:21.133Z,20.05
2022-10-08T01:49:21.167Z,20.05
2022-10-08T01:50:21.109Z,20.05
2022-10-08T01:51:21.101Z,20.05
2022-10-08T01:52:21.089Z,20.05
2022-10-08T01:53:21.081Z,20.05
2022-10-08T01:54:21.091Z,20.05
2022-10-08T01:55:21.060Z,20.05
2022-10-08T01:56:21.049Z,20.05
2022-10-08T01:57:21.039Z,20.05
2022-10-08T01:58:21.026Z,20.05
2022-10-08T01:59:21.041Z,20.06
2022-10-08T02:00:21.007Z,20.06
2022-10-08T02:01:21.076Z,20.05
2022-10-08T02:02:21.082Z,20.06
2022-10-08T02:03:20.972Z,20.03
2022-10-08T02:04:20.985Z,20.05
2022-10-08T02:05:20.997Z,20.05
2022-10-08T02:06:20.940Z,20.05
2022-10-08T02:07:20.929Z,20.05
2022-10-08T02:08:20.919Z,20.05
2022-10-08T02:09:20.908Z,20.03
2022-10-08T02:10:20.919Z,20.06
2022-10-08T02:11:20.890Z,20.06
2022-10-08T02:12:20.898Z,20.03
2022-10-08T02:13:20.868Z,20.06
2022-10-08T02:14:20.859Z,20.03
2022-10-08T02:15:20.844Z,20.05
2022-10-08T02:16:20.896Z,20.03
2022-10-08T02:17:20.847Z,20.05
2022-10-08T02:18:20.835Z,20.05
2022-10-08T02:19:20.805Z,20.03
2022-10-08T02:20:20.789Z,20.05
2022-10-08T02:21:20.806Z,20.03
2022-10-08T02:22:20.770Z,20.05
2022-10-08T02:23:20.790Z,20.05
2022-10-08T02:24:20.769Z,20.05
2022-10-08T02:25:20.741Z,20.05
2022-10-08T02:26:20.751Z,20.03
2022-10-08T02:27:20.718Z,20.05
2022-10-08T02:28:20.794Z,20.05
2022-10-08T02:29:20.722Z,20.03
2022-10-08T02:30:20.695Z,20.03
2022-10-08T02:31:20.768Z,20.03
2022-10-08T02:32:20.664Z,20.03
2022-10-08T02:33:20.657Z,20.05
2022-10-08T02:34:20.642Z,20.03
2022-10-08T02:35:20.632Z,20.05
2022-10-08T02:36:20.644Z,20.05
2022-10-08T02:37:20.635Z,20.05
2022-10-08T02:38:20.601Z,20.03
2022-10-08T02:39:20.594Z,20.03
2022-10-08T02:40:20.579Z,20.05
2022-10-08T02:41:20.605Z,20.03
2022-10-08T02:42:20.559Z,20.02
2022-10-08T02:43:20.550Z,20.03
2022-10-08T02:44:20.541Z,20.03
2022-10-08T02:45:20.527Z,20.05
2022-10-08T02:46:20.585Z,20.03
2022-10-08T02:47:20.529Z,20.03
2022-10-08T02:48:20.498Z,20.03
2022-10-08T02:49:20.506Z,20.03
2022-10-08T02:50:20.477Z,20.03
2022-10-08T02:51:20.471Z,20.05
2022-10-08T02:52:20.452Z,20.02
2022-10-08T02:53:20.491Z,20.05
2022-10-08T02:54:20.435Z,20.03
2022-10-08T02:55:20.423Z,20.02
2022-10-08T02:56:20.414Z,20.03
2022-10-08T02:57:20.401Z,20.03
2022-10-08T02:58:20.391Z,20.03
2022-10-08T02:59:20.401Z,20.03
2022-10-08T03:00:20.371Z,20.03
2022-10-08T03:01:20.437Z,20.05
2022-10-08T03:02:20.410Z,20.03
2022-10-08T03:03:20.336Z,20.03
2022-10-08T03:04:20.327Z,20.03
2022-10-08T03:05:20.337Z,20.05
2022-10-08T03:06:20.308Z,20.03
2022-10-08T03:07:20.316Z,20.03
2022-10-08T03:08:20.288Z,20.02
2022-10-08T03:09:20.296Z,20.05
2022-10-08T03:10:20.265Z,20.03
2022-10-08T03:11:20.254Z,20.03
2022-10-08T03:12:20.264Z,20.03
2022-10-08T03:13:20.229Z,20.02
2022-10-08T03:14:20.219Z,20.03
2022-10-08T03:15:20.208Z,20.03
2022-10-08T03:16:20.304Z,20.03
2022-10-08T03:17:20.189Z,20.03
2022-10-08T03:18:20.180Z,20.03
2022-10-08T03:19:20.175Z,20.03
2022-10-08T03:20:20.161Z,20.05
2022-10-08T03:21:20.167Z,20.03
2022-10-08T03:22:20.138Z,20.03
2022-10-08T03:23:20.128Z,20.02
2022-10-08T03:24:20.113Z,20.03
2022-10-08T03:25:20.146Z,20.03
2022-10-08T03:26:20.093Z,20.02
2022-10-08T03:27:20.082Z,20.02
2022-10-08T03:28:20.162Z,20.02
2022-10-08T03:29:20.060Z,20.03
2022-10-08T03:30:20.072Z,20.02
2022-10-08T03:31:20.040Z,20.03
2022-10-08T03:32:20.028Z,20.02
2022-10-08T03:33:20.017Z,20.02
2022-10-08T03:34:20.010Z,20.02
2022-10-08T03:35:20.018Z,20.03
2022-10-08T03:36:19.985Z,20.02
2022-10-08T03:37:19.976Z,20.02
2022-10-08T03:38:19.965Z,20.03
2022-10-08T03:39:19.965Z,20.03
2022-10-08T03:40:19.966Z,20.01
2022-10-08T03:41:19.960Z,20.02
2022-10-08T03:42:19.922Z,20.01
2022-10-08T03:43:19.915Z,20.02
2022-10-08T03:44:19.928Z,20.02
2022-10-08T03:45:19.891Z,20.02
2022-10-08T03:46:19.932Z,20.02
2022-10-08T03:47:19.892Z,20.01
2022-10-08T03:48:19.860Z,20.02
2022-10-08T03:49:19.849Z,20.02
2022-10-08T03:50:19.843Z,20.02
2022-10-08T03:51:19.850Z,20.03
2022-10-08T03:52:19.821Z,20.02
2022-10-08T03:53:19.806Z,20.03
2022-10-08T03:54:19.820Z,20.02
2022-10-08T03:55:19.785Z,20.03
2022-10-08T03:56:19.806Z,20.02
2022-10-08T03:57:19.793Z,20.02
2022-10-08T03:58:19.758Z,20.03
2022-10-08T03:59:19.744Z,20.01
2022-10-08T04:00:19.757Z,20.02
2022-10-08T04:01:19.768Z,20.02
2022-10-08T04:02:19.759Z,20.02
2022-10-08T04:03:19.702Z,20.02
2022-10-08T04:04:24.531Z,20.02
2022-10-08T04:05:20.704Z,20.01
2022-10-08T04:06:19.673Z,20.02
2022-10-08T04:07:19.661Z,20.01
2022-10-08T04:08:19.651Z,20.01
2022-10-08T04:09:19.640Z,20.02
2022-10-08T04:10:19.653Z,20.01
2022-10-08T04:11:19.645Z,19.99
2022-10-08T04:12:19.610Z,20.02
2022-10-08T04:13:19.624Z,20.02
2022-10-08T04:14:19.586Z,20.01
2022-10-08T04:15:19.575Z,20.02
2022-10-08T04:16:19.631Z,20.02
2022-10-08T04:17:19.576Z,20.01
2022-10-08T04:18:19.566Z,20.02
2022-10-08T04:19:19.532Z,20.01
2022-10-08T04:20:19.525Z,20.01
2022-10-08T04:21:19.510Z,20.02
2022-10-08T04:22:19.503Z,20.01
2022-10-08T04:23:19.528Z,20.02
2022-10-08T04:24:19.480Z,20.02
2022-10-08T04:25:19.469Z,20.01
2022-10-08T04:26:19.458Z,20.03
2022-10-08T04:27:19.448Z,20.01
2022-10-08T04:28:19.553Z,20.02
2022-10-08T04:29:19.452Z,20.01
2022-10-08T04:30:19.419Z,20.01
2022-10-08T04:31:19.514Z,20.02
2022-10-08T04:32:19.420Z,20.02
2022-10-08T04:33:19.385Z,20.01
2022-10-08T04:34:19.376Z,20.02
2022-10-08T04:35:19.363Z,20.01
2022-10-08T04:36:19.378Z,20.01
2022-10-08T04:37:19.342Z,20.01
2022-10-08T04:38:19.332Z,20.01
2022-10-08T04:39:19.321Z,20.02
2022-10-08T04:40:19.314Z,20.01
2022-10-08T04:41:19.322Z,19.99
2022-10-08T04:42:19.292Z,20.02
2022-10-08T04:43:19.302Z,20.02
2022-10-08T04:44:19.271Z,20.02
2022-10-08T04:45:19.281Z,20.02
2022-10-08T04:46:19.288Z,20.02
2022-10-08T04:47:19.261Z,20.01
2022-10-08T04:48:19.227Z,20.02
2022-10-08T04:49:19.238Z,20.01
2022-10-08T04:50:19.208Z,20.01
2022-10-08T04:51:19.195Z,20.01
2022-10-08T04:52:19.184Z,20.01
2022-10-08T04:53:19.172Z,20.01
2022-10-08T04:54:19.188Z,20.02
2022-10-08T04:55:19.150Z,20.01
2022-10-08T04:56:19.145Z,20.01
2022-10-08T04:57:19.131Z,20.02
2022-10-08T04:58:19.125Z,20.01
2022-10-08T04:59:19.134Z,20.01
2022-10-08T05:00:19.518Z,20.01
2022-10-08T05:01:19.190Z,20.02
2022-10-08T05:02:19.090Z,20.01
2022-10-08T05:03:19.067Z,20.01
2022-10-08T05:04:19.086Z,20.01
2022-10-08T05:05:19.045Z,20.01
2022-10-08T05:06:19.036Z,20.01
2022-10-08T05:07:19.024Z,20.02
2022-10-08T05:08:19.014Z,20.01
2022-10-08T05:09:19.027Z,19.99
2022-10-08T05:10:18.994Z,20.02
2022-10-08T05:11:18.983Z,20.01
2022-10-08T05:12:18.977Z,20.01
2022-10-08T05:13:18.964Z,20.01
2022-10-08T05:14:18.980Z,20.02
2022-10-08T05:15:18.940Z,20.01
2022-10-08T05:16:18.976Z,19.99
2022-10-08T05:17:18.944Z,20.01
2022-10-08T05:18:18.934Z,20.01
2022-10-08T05:19:18.898Z,20.01
2022-10-08T05:20:18.889Z,20.02
2022-10-08T05:21:18.897Z,20.01
2022-10-08T05:22:18.868Z,20.01
2022-10-08T05:23:18.877Z,20.01
2022-10-08T05:24:18.847Z,20.01
2022-10-08T05:25:18.834Z,20.01
2022-10-08T05:26:18.825Z,20.01
2022-10-08T05:27:18.811Z,19.99
2022-10-08T05:28:18.903Z,20.01
2022-10-08T05:29:18.811Z,20.01
2022-10-08T05:30:21.938Z,19.99
2022-10-08T05:31:18.819Z,20.01
2022-10-08T05:32:18.761Z,20.01
2022-10-08T05:33:18.772Z,20.01
2022-10-08T05:34:18.765Z,20.01
2022-10-08T05:35:18.763Z,19.99
2022-10-08T05:36:18.719Z,20.01
2022-10-08T05:37:18.705Z,20.01
2022-10-08T05:38:18.696Z,19.99
2022-10-08T05:39:18.684Z,20.01
2022-10-08T05:40:18.674Z,19.99
2022-10-08T05:41:18.686Z,20.01
2022-10-08T05:42:18.676Z,20.02
2022-10-08T05:43:18.666Z,20.01
2022-10-08T05:44:18.634Z,20.01
2022-10-08T05:45:18.622Z,19.99
2022-10-08T05:46:18.660Z,20.01
2022-10-08T05:47:18.630Z,20.01
2022-10-08T05:48:18.613Z,19.99
2022-10-08T05:49:18.602Z,19.99
2022-10-08T05:50:18.568Z,19.99
2022-10-08T05:51:18.558Z,20.01
2022-10-08T05:52:18.549Z,20.01
2022-10-08T05:53:18.559Z,19.99
2022-10-08T05:54:18.549Z,20.01
2022-10-08T05:55:18.516Z,20.01
2022-10-08T05:56:18.509Z,20.01
2022-10-08T05:57:18.495Z,19.99
2022-10-08T05:58:18.486Z,20.01
2022-10-08T05:59:18.498Z,20.01
2022-10-08T06:00:18.464Z,19.99
2022-10-08T06:01:18.453Z,20.01
2022-10-08T06:02:18.465Z,20.01
2022-10-08T06:03:18.431Z,20.01
2022-10-08T06:04:18.604Z,20.01
2022-10-08T06:05:18.432Z,20.01
2022-10-08T06:06:18.410Z,20.01
2022-10-08T06:07:18.411Z,20.01
2022-10-08T06:08:18.404Z,19.99
2022-10-08T06:09:18.369Z,19.99
2022-10-08T06:10:18.360Z,19.99
2022-10-08T06:11:18.346Z,20.01
2022-10-08T06:12:18.339Z,20.01
2022-10-08T06:13:18.347Z,20.01
2022-10-08T06:14:18.317Z,19.99
2022-10-08T06:15:18.307Z,20.01
2022-10-08T06:16:18.365Z,19.99
2022-10-08T06:17:18.306Z,19.99
2022-10-08T06:18:18.276Z,20.01
2022-10-08T06:19:18.286Z,20.01
2022-10-08T06:20:18.253Z,19.99
2022-10-08T06:21:18.265Z,19.99
2022-10-08T06:22:18.236Z,19.99
2022-10-08T06:23:18.222Z,19.99
2022-10-08T06:24:18.233Z,19.99
2022-10-08T06:25:18.202Z,19.99
2022-10-08T06:26:18.192Z,19.99
2022-10-08T06:27:18.178Z,19.99
2022-10-08T06:28:18.239Z,19.98
2022-10-08T06:29:18.185Z,20.01
2022-10-08T06:30:18.170Z,19.99
2022-10-08T06:31:18.204Z,20.01
2022-10-08T06:32:18.148Z,19.99
2022-10-08T06:33:18.115Z,19.99
2022-10-08T06:34:18.107Z,19.99
2022-10-08T06:35:18.118Z,19.99
2022-10-08T06:36:18.086Z,19.99
2022-10-08T06:37:18.097Z,20.01
2022-10-08T06:38:18.066Z,20.01
2022-10-08T06:39:18.060Z,19.98
2022-10-08T06:40:18.068Z,20.01
2022-10-08T06:41:18.031Z,19.99
2022-10-08T06:42:18.043Z,20.01
2022-10-08T06:43:18.011Z,19.99
2022-10-08T06:44:18.000Z,19.99
2022-10-08T06:45:18.010Z,19.98
2022-10-08T06:46:18.076Z,19.99
2022-10-08T06:47:17.968Z,19.99
2022-10-08T06:48:17.960Z,19.98
2022-10-08T06:49:17.947Z,19.99
2022-10-08T06:50:17.961Z,19.98
2022-10-08T06:51:17.950Z,19.99
2022-10-08T06:52:17.917Z,19.98
2022-10-08T06:53:17.929Z,19.99
2022-10-08T06:54:17.900Z,19.98
2022-10-08T06:55:17.884Z,19.98
2022-10-08T06:56:17.898Z,19.98
2022-10-08T06:57:17.862Z,19.98
2022-10-08T06:58:17.852Z,19.99
2022-10-08T06:59:17.842Z,19.99
2022-10-08T07:00:17.836Z,19.98
2022-10-08T07:01:17.935Z,19.98
2022-10-08T07:02:17.854Z,19.99
2022-10-08T07:03:17.799Z,19.98
2022-10-08T07:04:17.827Z,19.98
2022-10-08T07:05:17.778Z,19.99
2022-10-08T07:06:17.770Z,19.99
2022-10-08T07:07:17.758Z,19.99
2022-10-08T07:08:17.746Z,19.98
2022-10-08T07:09:17.761Z,19.98
2022-10-08T07:10:18.593Z,19.98
2022-10-08T07:11:17.717Z,19.99
2022-10-08T07:12:17.705Z,19.99
2022-10-08T07:13:17.728Z,19.98
2022-10-08T07:14:17.683Z,19.99
2022-10-08T07:15:17.676Z,20.01
2022-10-08T07:16:20.790Z,19.99
2022-10-08T07:17:17.652Z,19.98
2022-10-08T07:18:17.640Z,19.99
2022-10-08T07:19:17.653Z,19.99
2022-10-08T07:20:17.619Z,20.01
2022-10-08T07:21:17.611Z,19.99
2022-10-08T07:22:17.598Z,20.01
2022-10-08T07:23:17.592Z,19.99
2022-10-08T07:24:17.601Z,19.98
2022-10-08T07:25:17.614Z,20.01
2022-10-08T07:26:17.568Z,19.99
2022-10-08T07:27:17.547Z,19.99
2022-10-08T07:28:17.599Z,20.01
2022-10-08T07:29:17.550Z,19.98
2022-10-08T07:30:17.514Z,19.99
2022-10-08T07:31:17.631Z,19.99
2022-10-08T07:32:17.515Z,19.98
2022-10-08T07:33:17.484Z,19.98
2022-10-08T07:34:17.490Z,19.98
2022-10-08T07:35:17.462Z,19.99
2022-10-08T07:36:17.451Z,20.01
2022-10-08T07:37:17.465Z,19.99
2022-10-08T07:38:17.431Z,19.99
2022-10-08T07:39:17.441Z,19.99
2022-10-08T07:40:17.409Z,19.99
2022-10-08T07:41:17.429Z,19.99
2022-10-08T07:42:17.397Z,19.99
2022-10-08T07:43:19.794Z,19.99
2022-10-08T07:44:17.388Z,19.99
2022-10-08T07:45:17.358Z,19.98
2022-10-08T07:46:17.349Z,19.99
2022-10-08T07:47:17.338Z,19.98
2022-10-08T07:48:17.325Z,19.98
2022-10-08T07:49:17.340Z,19.99
2022-10-08T07:50:17.305Z,19.96
2022-10-08T07:51:17.293Z,19.98
2022-10-08T07:52:17.282Z,19.98
2022-10-08T07:53:17.275Z,19.99
2022-10-08T07:54:17.293Z,19.99
2022-10-08T07:55:17.278Z,19.98
2022-10-08T07:56:17.242Z,19.98
2022-10-08T07:57:17.252Z,19.99
2022-10-08T07:58:17.220Z,19.98
2022-10-08T07:59:17.234Z,19.99
2022-10-08T08:00:17.199Z,19.98
2022-10-08T08:01:17.324Z,19.99
2022-10-08T08:02:17.244Z,19.99
2022-10-08T08:03:17.167Z,19.98
2022-10-08T08:04:17.180Z,19.99
2022-10-08T08:05:17.146Z,19.98
2022-10-08T08:06:17.135Z,19.99
2022-10-08T08:07:17.150Z,19.99
2022-10-08T08:08:17.115Z,19.98
2022-10-08T08:09:17.128Z,19.98
2022-10-08T08:10:17.095Z,19.99
2022-10-08T08:11:17.084Z,19.99
2022-10-08T08:12:17.094Z,19.99
2022-10-08T08:13:17.087Z,19.99
2022-10-08T08:14:17.052Z,19.98
2022-10-08T08:15:17.043Z,19.98
2022-10-08T08:16:17.114Z,19.98
2022-10-08T08:17:17.042Z,19.98
2022-10-08T08:18:17.009Z,19.98
2022-10-08T08:19:17.002Z,19.98
2022-10-08T08:20:16.987Z,19.99
2022-10-08T08:21:16.979Z,19.98
2022-10-08T08:22:16.990Z,19.99
2022-10-08T08:23:16.960Z,19.98
2022-10-08T08:24:16.946Z,19.98
2022-10-08T08:25:16.937Z,19.98
2022-10-08T08:26:16.924Z,19.98
2022-10-08T08:27:16.939Z,19.98
2022-10-08T08:28:16.953Z,19.96
2022-10-08T08:29:16.923Z,19.96
2022-10-08T08:30:16.889Z,19.98
2022-10-08T08:31:16.937Z,19.96
2022-10-08T08:32:16.886Z,19.98
2022-10-08T08:33:16.855Z,19.98
2022-10-08T08:34:16.842Z,19.98
2022-10-08T08:35:16.830Z,19.98
2022-10-08T08:36:16.822Z,19.98
2022-10-08T08:37:16.834Z,19.96
2022-10-08T08:38:16.797Z,19.96
2022-10-08T08:39:16.790Z,19.98
2022-10-08T08:40:16.799Z,19.98
2022-10-08T08:41:20.436Z,19.98
2022-10-08T08:42:16.755Z,19.98
2022-10-08T08:43:16.749Z,19.98
2022-10-08T08:44:16.734Z,19.96
2022-10-08T08:45:41.601Z,19.96
2022-10-08T08:46:17.747Z,19.96
2022-10-08T08:47:16.727Z,19.96
2022-10-08T08:48:16.692Z,19.99
2022-10-08T08:49:16.681Z,19.99
2022-10-08T08:50:16.678Z,19.98
2022-10-08T08:51:16.661Z,19.98
2022-10-08T08:52:16.672Z,19.98
2022-10-08T08:53:16.643Z,19.98
2022-10-08T08:54:16.626Z,19.96
2022-10-08T08:55:16.639Z,19.98
2022-10-08T08:56:16.606Z,19.99
2022-10-08T08:57:16.596Z,19.98
2022-10-08T08:58:16.586Z,19.99
2022-10-08T08:59:16.577Z,19.98
2022-10-08T09:00:16.564Z,19.98
2022-10-08T09:01:16.746Z,19.96
2022-10-08T09:02:16.544Z,19.98
2022-10-08T09:03:16.534Z,19.98
2022-10-08T09:04:16.559Z,19.96
2022-10-08T09:05:16.552Z,19.99
2022-10-08T09:06:16.502Z,19.98
2022-10-08T09:07:16.492Z,19.96
2022-10-08T09:08:16.479Z,19.98
2022-10-08T09:09:16.471Z,19.98
2022-10-08T09:10:16.481Z,19.98
2022-10-08T09:11:16.450Z,19.98
2022-10-08T09:12:20.453Z,19.98
2022-10-08T09:13:16.427Z,19.98
2022-10-08T09:14:16.418Z,19.98
2022-10-08T09:15:16.434Z,19.98
2022-10-08T09:16:16.449Z,19.98
2022-10-08T09:17:16.411Z,19.98
2022-10-08T09:18:16.375Z,19.99
2022-10-08T09:19:16.366Z,19.98
2022-10-08T09:20:16.378Z,19.98
2022-10-08T09:21:16.347Z,19.98
2022-10-08T09:22:16.332Z,19.98
2022-10-08T09:23:16.345Z,19.99
2022-10-08T09:24:16.311Z,19.99
2022-10-08T09:25:16.301Z,19.98
2022-10-08T09:26:16.291Z,19.98
2022-10-08T09:27:16.304Z,19.98
2022-10-08T09:28:16.315Z,19.99
2022-10-08T09:29:16.260Z,19.98
2022-10-08T09:30:16.269Z,19.99
2022-10-08T09:31:16.347Z,19.99
2022-10-08T09:32:16.226Z,19.98
2022-10-08T09:33:16.279Z,19.99
2022-10-08T09:34:16.207Z,19.98
2022-10-08T09:35:16.195Z,19.99
2022-10-08T09:36:16.184Z,19.98
2022-10-08T09:37:16.174Z,19.98
2022-10-08T09:38:16.188Z,19.99
2022-10-08T09:39:16.155Z,19.99
2022-10-08T09:40:16.165Z,19.99
2022-10-08T09:41:16.133Z,19.96
2022-10-08T09:42:16.121Z,19.98
2022-10-08T09:43:16.112Z,19.98
2022-10-08T09:44:16.100Z,19.98
2022-10-08T09:45:19.115Z,19.98
2022-10-08T09:46:17.144Z,19.98
2022-10-08T09:47:16.069Z,19.99
2022-10-08T09:48:16.060Z,19.98
2022-10-08T09:49:16.071Z,19.98
2022-10-08T09:50:16.066Z,19.98
2022-10-08T09:51:16.026Z,19.98
2022-10-08T09:52:17.446Z,19.96
2022-10-08T09:53:16.005Z,19.98
2022-10-08T09:54:15.995Z,19.98
2022-10-08T09:55:16.005Z,19.98
2022-10-08T09:56:15.976Z,19.98
2022-10-08T09:57:15.963Z,19.98
2022-10-08T09:58:15.954Z,19.98
2022-10-08T09:59:15.966Z,19.98
2022-10-08T10:00:15.935Z,19.96
2022-10-08T10:01:16.026Z,19.98
2022-10-08T10:02:15.935Z,19.98
2022-10-08T10:03:15.900Z,19.96
2022-10-08T10:04:16.001Z,19.99
2022-10-08T10:05:15.915Z,19.96
2022-10-08T10:06:21.007Z,19.98
2022-10-08T10:07:16.880Z,19.98
2022-10-08T10:08:15.848Z,19.96
2022-10-08T10:09:15.834Z,19.98
2022-10-08T10:10:15.851Z,19.96
2022-10-08T10:11:15.814Z,19.98
2022-10-08T10:12:15.808Z,19.98
2022-10-08T10:13:15.793Z,19.96
2022-10-08T10:14:15.806Z,19.96
2022-10-08T10:15:15.770Z,19.96
2022-10-08T10:16:15.815Z,19.98
2022-10-08T10:17:15.752Z,19.96
2022-10-08T10:18:15.749Z,19.98
2022-10-08T10:19:15.751Z,19.96
2022-10-08T10:20:15.722Z,19.98
2022-10-08T10:21:15.802Z,19.96
2022-10-08T10:22:15.720Z,19.96
2022-10-08T10:23:15.686Z,19.96
2022-10-08T10:24:15.676Z,19.95
2022-10-08T10:25:15.686Z,19.96
2022-10-08T10:26:15.678Z,19.96
2022-10-08T10:27:15.644Z,19.96
2022-10-08T10:28:15.772Z,19.96
2022-10-08T10:29:15.631Z,19.95
2022-10-08T10:30:15.613Z,19.96
2022-10-08T10:31:15.688Z,19.96
2022-10-08T10:32:17.764Z,19.96
2022-10-08T10:33:16.616Z,19.96
2022-10-08T10:34:15.569Z,19.96
2022-10-08T10:35:15.558Z,19.96
2022-10-08T10:36:15.570Z,19.96
2022-10-08T10:37:15.561Z,19.98
2022-10-08T10:38:15.551Z,19.96
2022-10-08T10:39:15.514Z,19.96
2022-10-08T10:40:15.505Z,19.96
2022-10-08T10:41:15.493Z,19.95
2022-10-08T10:42:15.489Z,19.96
2022-10-08T10:43:15.493Z,19.95
2022-10-08T10:44:15.463Z,19.96
2022-10-08T10:45:15.449Z,19.95
2022-10-08T10:46:15.513Z,19.96
2022-10-08T10:47:15.429Z,19.96
2022-10-08T10:48:15.443Z,19.98
2022-10-08T10:49:15.451Z,19.96
2022-10-08T10:50:15.401Z,19.96
2022-10-08T10:51:15.385Z,19.96
2022-10-08T10:52:15.377Z,19.94
2022-10-08T10:53:15.386Z,19.95
2022-10-08T10:54:15.377Z,19.95
2022-10-08T10:55:15.343Z,19.96
2022-10-08T10:56:15.357Z,19.94
2022-10-08T10:57:15.321Z,19.96
2022-10-08T10:58:15.312Z,19.96
2022-10-08T10:59:15.299Z,19.95
2022-10-08T11:00:15.307Z,19.96
2022-10-08T11:01:15.407Z,19.95
2022-10-08T11:02:15.342Z,19.95
2022-10-08T11:03:15.255Z,19.95
2022-10-08T11:04:15.254Z,19.95
2022-10-08T11:05:15.260Z,19.96
2022-10-08T11:06:15.226Z,19.96
2022-10-08T11:07:15.213Z,19.96
2022-10-08T11:08:15.204Z,19.95
2022-10-08T11:09:15.215Z,19.95
2022-10-08T11:10:15.285Z,19.95
2022-10-08T11:11:15.192Z,19.95
2022-10-08T11:12:15.160Z,19.96
2022-10-08T11:13:15.149Z,19.95
2022-10-08T11:14:15.138Z,19.95
2022-10-08T11:15:15.130Z,19.95
2022-10-08T11:16:15.183Z,19.95
2022-10-08T11:17:18.666Z,19.96
2022-10-08T11:18:16.095Z,19.95
2022-10-08T11:19:15.088Z,19.95
2022-10-08T11:20:15.119Z,19.95
2022-10-08T11:21:15.091Z,19.95
2022-10-08T11:22:15.054Z,19.94
2022-10-08T11:23:15.043Z,19.95
2022-10-08T11:24:15.032Z,19.95
2022-10-08T11:25:15.044Z,19.95
2022-10-08T11:26:22.344Z,19.95
2022-10-08T11:27:16.022Z,19.94
2022-10-08T11:28:15.019Z,19.95
2022-10-08T11:29:14.979Z,19.94
2022-10-08T11:30:15.112Z,19.95
2022-10-08T11:31:15.017Z,19.95
2022-10-08T11:32:14.972Z,19.95
2022-10-08T11:33:14.958Z,19.95
2022-10-08T11:34:14.927Z,19.95
2022-10-08T11:35:14.924Z,19.95
2022-10-08T11:36:14.906Z,19.95
2022-10-08T11:37:14.896Z,19.95
2022-10-08T11:38:14.911Z,19.95
2022-10-08T11:39:14.898Z,19.95
2022-10-08T11:40:14.954Z,19.95
2022-10-08T11:41:14.882Z,19.95
2022-10-08T11:42:14.843Z,19.95
2022-10-08T11:43:14.903Z,19.95
2022-10-08T11:44:14.823Z,19.94
2022-10-08T11:45:14.817Z,19.95
2022-10-08T11:46:14.878Z,19.96
2022-10-08T11:47:14.791Z,19.94
2022-10-08T11:48:14.803Z,19.95
2022-10-08T11:49:14.778Z,19.95
2022-10-08T11:50:14.758Z,19.95
2022-10-08T11:51:14.772Z,19.95
2022-10-08T11:52:14.738Z,19.95
2022-10-08T11:53:14.730Z,19.95
2022-10-08T11:54:14.719Z,19.95
2022-10-08T11:55:14.707Z,19.95
2022-10-08T11:56:14.719Z,19.95
2022-10-08T11:57:14.734Z,19.95
2022-10-08T11:58:14.695Z,19.95
2022-10-08T11:59:14.664Z,19.95
2022-10-08T12:00:14.665Z,19.95
2022-10-08T12:01:14.642Z,19.95
2022-10-08T12:02:14.699Z,19.96
2022-10-08T12:03:14.705Z,19.95
2022-10-08T12:04:14.612Z,19.96
2022-10-08T12:05:14.624Z,19.95
2022-10-08T12:06:14.589Z,19.95
2022-10-08T12:07:14.582Z,19.96
2022-10-08T12:08:14.593Z,19.96
2022-10-08T12:09:14.590Z,19.96
2022-10-08T12:10:14.547Z,19.95
2022-10-08T12:11:14.541Z,19.94
2022-10-08T12:12:14.526Z,19.95
2022-10-08T12:13:17.827Z,19.96
2022-10-08T12:14:14.662Z,19.95
2022-10-08T12:15:14.499Z,19.95
2022-10-08T12:16:14.569Z,19.95
2022-10-08T12:17:14.476Z,19.96
2022-10-08T12:18:14.463Z,19.95
2022-10-08T12:19:14.490Z,19.96
2022-10-08T12:20:14.443Z,19.95
2022-10-08T12:21:14.434Z,19.95
2022-10-08T12:22:14.424Z,19.94
2022-10-08T12:23:14.413Z,19.94
2022-10-08T12:24:14.403Z,19.95
2022-10-08T12:25:14.416Z,19.95
2022-10-08T12:26:14.379Z,19.95
2022-10-08T12:27:14.392Z,19.95
2022-10-08T12:28:14.434Z,19.95
2022-10-08T12:29:14.373Z,19.95
2022-10-08T12:30:14.414Z,19.96
2022-10-08T12:31:14.418Z,19.96
2022-10-08T12:32:14.321Z,19.95
2022-10-08T12:33:14.333Z,19.96
2022-10-08T12:34:14.295Z,19.96
2022-10-08T12:35:14.286Z,19.96
2022-10-08T12:36:14.273Z,19.96
2022-10-08T12:37:16.565Z,19.98
2022-10-08T12:38:14.277Z,19.96
2022-10-08T12:39:14.244Z,19.96
2022-10-08T12:40:14.232Z,19.96
2022-10-08T12:41:14.245Z,19.98
2022-10-08T12:42:14.211Z,19.96
2022-10-08T12:43:14.202Z,19.96
2022-10-08T12:44:14.189Z,19.98
2022-10-08T12:45:14.213Z,19.95
2022-10-08T12:46:14.252Z,19.96
2022-10-08T12:47:14.185Z,19.96
2022-10-08T12:48:14.147Z,19.98
2022-10-08T12:49:14.136Z,19.98
2022-10-08T12:50:14.124Z,19.98
2022-10-08T12:51:14.115Z,19.96
2022-10-08T12:52:14.142Z,19.98